Time;durP1;ratioP1;P1;durP2;ratioP2;P2;SDS_P1;SDS_P2;PMS_P1;PMS_P2;Temp;Humidity;BMP_temperature;BMP_pressure;BME280_temperature;BME280_humidity;BME280_pressure;Samples;Min_cycle;Max_cycle;Signal;HPM_P1;HPM_P2
2021/07/28 00:00:53;;;;;;;3.93;3.43;;;19.20;99.90;;;;;;5012470;28;20688;-81
2021/07/28 00:03:18;;;;;;;3.10;2.80;;;19.20;99.90;;;;;;5012167;28;21271;-81
2021/07/28 00:05:44;;;;;;;3.87;3.57;;;19.20;99.90;;;;;;4999583;28;20835;-80
2021/07/28 00:08:10;;;;;;;5.53;3.27;;;19.20;99.90;;;;;;5016795;28;20221;-80
2021/07/28 00:10:35;;;;;;;4.20;3.50;;;19.10;99.90;;;;;;5000933;28;20191;-81
2021/07/28 00:13:01;;;;;;;5.27;3.47;;;19.10;99.90;;;;;;5015038;28;20170;-81
2021/07/28 00:15:27;;;;;;;4.40;4.00;;;19.10;99.90;;;;;;4997203;28;20309;-81
2021/07/28 00:17:57;;;;;;;3.67;3.00;;;19.10;99.90;;;;;;5012935;28;20182;-81
2021/07/28 00:23:15;;;;;;;4.00;3.60;;;19.10;99.90;;;;;;4999659;28;20685;-81
2021/07/28 00:25:42;;;;;;;8.13;4.60;;;19.00;99.90;;;;;;4996668;28;20601;-81
2021/07/28 00:28:09;;;;;;;5.13;3.57;;;19.00;99.90;;;;;;5014254;28;20178;-81
2021/07/28 00:30:34;;;;;;;4.50;4.07;;;19.10;99.90;;;;;;5014040;28;21212;-81
2021/07/28 00:33:00;;;;;;;3.63;3.33;;;19.10;99.90;;;;;;5013480;28;20577;-81
2021/07/28 00:35:27;;;;;;;5.43;4.00;;;19.10;99.90;;;;;;5012713;28;20202;-81
2021/07/28 00:37:54;;;;;;;5.13;4.27;;;19.10;99.90;;;;;;4979373;28;21052;-81
2021/07/28 00:40:20;;;;;;;4.23;3.83;;;19.10;99.90;;;;;;5013585;28;20743;-81
2021/07/28 00:42:46;;;;;;;3.47;3.10;;;19.20;99.90;;;;;;4995669;28;21077;-81
2021/07/28 00:45:12;;;;;;;5.90;3.97;;;19.20;99.90;;;;;;5012970;28;20591;-80
2021/07/28 00:47:37;;;;;;;4.87;4.07;;;19.20;99.90;;;;;;5012755;28;20182;-81
2021/07/28 00:50:05;;;;;;;4.33;3.73;;;19.20;99.90;;;;;;4979379;28;21156;-81
2021/07/28 00:52:32;;;;;;;5.00;4.40;;;19.20;99.90;;;;;;5016787;28;20190;-80
2021/07/28 00:54:58;;;;;;;4.13;3.83;;;19.20;99.90;;;;;;5014879;28;20621;-81
2021/07/28 00:57:24;;;;;;;4.27;3.90;;;19.30;99.90;;;;;;5013194;28;20611;-81
2021/07/28 00:59:49;;;;;;;4.43;3.80;;;19.20;99.90;;;;;;5017022;28;20565;-81
2021/07/28 01:02:15;;;;;;;6.33;4.60;;;19.20;99.90;;;;;;5012738;28;20510;-80
2021/07/28 01:04:43;;;;;;;4.87;4.00;;;19.20;99.90;;;;;;5012490;28;20208;-80
2021/07/28 01:07:09;;;;;;;4.47;4.00;;;19.30;99.90;;;;;;5012665;28;20182;-80
2021/07/28 01:09:34;;;;;;;3.97;3.57;;;19.30;99.90;;;;;;4994593;28;20668;-80
2021/07/28 01:12:03;;;;;;;4.70;3.40;;;19.30;99.90;;;;;;5012916;28;20201;-80
2021/07/28 01:14:29;;;;;;;7.60;4.00;;;19.40;99.90;;;;;;5012803;28;20232;-81
2021/07/28 01:16:56;;;;;;;6.37;4.20;;;19.40;99.90;;;;;;5012801;28;20565;-80
2021/07/28 01:19:29;;;;;;;7.97;5.00;;;19.30;99.90;;;;;;4994669;28;20551;-80
2021/07/28 01:21:56;;;;;;;4.43;4.03;;;19.40;99.90;;;;;;5011744;28;20987;-80
2021/07/28 01:24:22;;;;;;;4.50;3.97;;;19.40;99.90;;;;;;5012261;28;20558;-81
2021/07/28 01:26:48;;;;;;;5.03;3.33;;;19.40;99.90;;;;;;4994931;28;20634;-80
2021/07/28 01:29:14;;;;;;;5.03;4.53;;;19.40;99.90;;;;;;5011048;28;20185;-80
2021/07/28 01:31:43;;;;;;;5.87;4.37;;;19.40;99.90;;;;;;5010947;28;20996;-81
2021/07/28 01:34:10;;;;;;;5.50;4.83;;;19.40;99.90;;;;;;4994853;28;20728;-81
2021/07/28 01:36:38;;;;;;;5.90;5.30;;;19.50;99.90;;;;;;5016270;28;20928;-81
2021/07/28 01:39:04;;;;;;;4.93;4.37;;;19.50;99.90;;;;;;5011327;28;20573;-81
2021/07/28 01:41:32;;;;;;;4.50;4.10;;;19.50;99.90;;;;;;5012657;28;21079;-80
2021/07/28 01:43:57;;;;;;;3.50;2.87;;;19.50;99.90;;;;;;4994566;28;20665;-80
2021/07/28 01:46:23;;;;;;;5.53;4.70;;;19.50;99.90;;;;;;5012289;28;20668;-80
2021/07/28 01:48:49;;;;;;;5.10;4.47;;;19.50;99.90;;;;;;4994044;28;20581;-81
2021/07/28 01:51:15;;;;;;;6.07;5.43;;;19.50;99.90;;;;;;4994115;28;20194;-81
2021/07/28 01:53:43;;;;;;;7.00;4.30;;;19.50;99.90;;;;;;4994573;28;20217;-81
2021/07/28 01:56:09;;;;;;;4.90;3.97;;;19.50;99.90;;;;;;5011745;28;20255;-80
2021/07/28 01:58:39;;;;;;;4.63;4.20;;;19.50;99.90;;;;;;4993980;28;20669;-80
2021/07/28 02:01:06;;;;;;;5.70;4.03;;;19.50;99.90;;;;;;5010296;28;20692;-81
2021/07/28 02:03:31;;;;;;;6.27;4.70;;;19.50;99.90;;;;;;4978719;28;20569;-81
2021/07/28 02:05:57;;;;;;;5.50;5.00;;;19.50;99.90;;;;;;4979495;28;21204;-80
2021/07/28 02:08:23;;;;;;;4.40;4.00;;;19.50;99.90;;;;;;5012783;28;20604;-80
2021/07/28 02:10:50;;;;;;;5.43;4.90;;;19.50;99.90;;;;;;4978760;28;20202;-80
2021/07/28 02:13:18;;;;;;;5.70;5.20;;;19.50;99.90;;;;;;4999552;28;20178;-81
2021/07/28 02:15:45;;;;;;;5.77;5.13;;;19.50;99.90;;;;;;5013104;28;20655;-80
2021/07/28 02:18:12;;;;;;;4.63;4.23;;;19.50;99.90;;;;;;4994580;28;20577;-80
2021/07/28 02:20:37;;;;;;;5.53;5.00;;;19.40;99.90;;;;;;4978031;28;20616;-80
2021/07/28 02:23:04;;;;;;;4.60;4.20;;;19.50;99.90;;;;;;4994485;28;20704;-80
2021/07/28 02:25:30;;;;;;;5.83;5.33;;;19.50;99.90;;;;;;5012482;28;20171;-81
2021/07/28 02:27:56;;;;;;;6.00;5.40;;;19.50;99.90;;;;;;5011533;28;20620;-81
2021/07/28 02:30:22;;;;;;;7.30;5.00;;;19.50;99.90;;;;;;4996726;28;20647;-80
2021/07/28 02:32:49;;;;;;;5.97;5.40;;;19.50;99.90;;;;;;5011589;28;20171;-81
2021/07/28 02:35:15;;;;;;;6.00;5.50;;;19.50;99.90;;;;;;4995181;28;20631;-80
2021/07/28 02:37:43;;;;;;;5.43;4.83;;;19.50;99.90;;;;;;4995824;28;21160;-81
2021/07/28 02:40:20;;;;;;;6.93;5.23;;;19.50;99.90;;;;;;4997018;28;20593;-81
2021/07/28 02:42:46;;;;;;;6.80;5.33;;;19.50;99.90;;;;;;5016306;28;20607;-80
2021/07/28 02:45:12;;;;;;;6.70;5.43;;;19.50;99.90;;;;;;5016543;28;20589;-80
2021/07/28 02:47:38;;;;;;;7.93;5.10;;;19.50;99.90;;;;;;5015757;28;20573;-80
2021/07/28 02:50:05;;;;;;;7.27;4.90;;;19.50;99.90;;;;;;5018999;28;20248;-80
2021/07/28 02:52:31;;;;;;;5.30;4.90;;;19.60;99.90;;;;;;5014159;28;20565;-80
2021/07/28 02:55:03;;;;;;;7.80;5.37;;;19.60;99.90;;;;;;4998242;28;21064;-80
2021/07/28 02:57:29;;;;;;;5.13;4.70;;;19.60;99.90;;;;;;4983772;28;20580;-80
2021/07/28 02:59:55;;;;;;;5.83;5.20;;;19.70;99.90;;;;;;5014009;28;20618;-81
2021/07/28 03:02:21;;;;;;;6.70;6.10;;;19.70;99.90;;;;;;5015982;28;20553;-80
2021/07/28 03:04:46;;;;;;;5.80;5.03;;;19.70;99.90;;;;;;5015206;28;20182;-80
2021/07/28 03:07:12;;;;;;;6.30;5.17;;;19.70;99.90;;;;;;4996751;28;20170;-80
2021/07/28 03:09:38;;;;;;;5.70;5.20;;;19.70;99.90;;;;;;5014861;28;20194;-80
2021/07/28 03:12:04;;;;;;;6.43;5.60;;;19.70;99.90;;;;;;5014654;28;20277;-80
2021/07/28 03:14:30;;;;;;;5.50;4.83;;;19.70;99.90;;;;;;4996351;28;20206;-81
2021/07/28 03:16:56;;;;;;;6.33;5.00;;;19.70;99.90;;;;;;4996387;28;20581;-80
2021/07/28 03:19:21;;;;;;;5.53;4.97;;;19.70;99.90;;;;;;5014131;28;20219;-80
2021/07/28 03:21:50;;;;;;;7.20;4.90;;;19.70;99.90;;;;;;4996681;28;20609;-80
2021/07/28 03:24:17;;;;;;;6.43;5.40;;;19.70;99.90;;;;;;5013955;28;20214;-80
2021/07/28 03:26:43;;;;;;;5.97;5.47;;;19.70;99.90;;;;;;5000139;28;20561;-80
2021/07/28 03:29:09;;;;;;;7.53;5.97;;;19.60;99.90;;;;;;5016959;28;20573;-80
2021/07/28 03:31:34;;;;;;;11.63;6.07;;;19.60;99.90;;;;;;5015491;28;20193;-80
2021/07/28 03:34:00;;;;;;;7.37;5.37;;;19.60;99.90;;;;;;4997925;28;20530;-80
2021/07/28 03:36:26;;;;;;;6.50;6.00;;;19.60;99.90;;;;;;5013738;28;20175;-80
2021/07/28 03:38:52;;;;;;;8.17;6.07;;;19.50;99.90;;;;;;4996748;28;20596;-80
2021/07/28 03:41:17;;;;;;;5.80;5.20;;;19.50;99.90;;;;;;4996543;28;20332;-80
2021/07/28 03:43:43;;;;;;;6.53;5.90;;;19.50;99.90;;;;;;4997111;28;20178;-80
2021/07/28 03:46:09;;;;;;;6.30;5.00;;;19.50;99.90;;;;;;4997226;28;20280;-80
2021/07/28 03:48:34;;;;;;;7.27;6.07;;;19.50;99.90;;;;;;4999153;28;20185;-80
2021/07/28 03:51:00;;;;;;;5.10;4.70;;;19.50;99.90;;;;;;4999561;28;20233;-80
2021/07/28 03:53:27;;;;;;;6.40;5.80;;;19.50;99.90;;;;;;5017125;28;20206;-80
2021/07/28 03:55:53;;;;;;;5.90;5.40;;;19.50;99.90;;;;;;4983004;28;20617;-80
2021/07/28 03:58:19;;;;;;;6.27;5.60;;;19.40;99.90;;;;;;4997123;28;20566;-80
2021/07/28 04:00:45;;;;;;;8.53;5.53;;;19.50;99.90;;;;;;5014182;28;20640;-81
2021/07/28 04:03:11;;;;;;;6.80;6.10;;;19.40;99.90;;;;;;5018349;28;21022;-81
2021/07/28 04:05:36;;;;;;;6.10;4.80;;;19.40;99.90;;;;;;4998125;28;20204;-80
2021/07/28 04:08:02;;;;;;;8.43;6.00;;;19.40;99.90;;;;;;4996135;28;20245;-80
2021/07/28 04:10:28;;;;;;;5.97;5.37;;;19.40;99.90;;;;;;5013195;28;20202;-80
2021/07/28 04:12:54;;;;;;;9.63;6.57;;;19.40;99.90;;;;;;5014826;28;20573;-80
2021/07/28 04:15:20;;;;;;;8.90;5.97;;;19.40;99.90;;;;;;5016091;28;20621;-80
2021/07/28 04:17:46;;;;;;;5.77;5.17;;;19.40;99.90;;;;;;5000228;28;20569;-80
2021/07/28 04:20:13;;;;;;;6.53;5.57;;;19.40;99.90;;;;;;5012676;28;20590;-78
2021/07/28 04:22:38;;;;;;;5.90;5.27;;;19.40;99.90;;;;;;5010906;28;20605;-78
2021/07/28 04:25:05;;;;;;;6.10;5.50;;;19.40;99.90;;;;;;5011198;28;21146;-78
2021/07/28 04:27:32;;;;;;;6.97;4.17;;;19.40;99.90;;;;;;4962594;28;20186;-78
2021/07/28 04:29:58;;;;;;;6.67;5.53;;;19.50;99.90;;;;;;5012515;28;20562;-78
2021/07/28 04:32:24;;;;;;;6.73;6.10;;;19.50;99.90;;;;;;4979128;28;21141;-78
2021/07/28 04:34:50;;;;;;;6.10;4.67;;;19.50;99.90;;;;;;4995050;28;20701;-78
2021/07/28 04:37:16;;;;;;;7.57;5.20;;;19.50;99.90;;;;;;5012657;28;20597;-78
2021/07/28 04:39:42;;;;;;;6.07;5.50;;;19.50;99.90;;;;;;5015457;28;20643;-78
2021/07/28 04:42:08;;;;;;;6.97;5.87;;;19.50;99.90;;;;;;5013781;28;20663;-78
2021/07/28 04:44:34;;;;;;;6.80;5.10;;;19.50;99.90;;;;;;4978436;28;20602;-78
2021/07/28 04:47:00;;;;;;;5.47;4.90;;;19.50;99.90;;;;;;5012234;28;20678;-77
2021/07/28 04:49:26;;;;;;;10.13;6.00;;;19.60;99.90;;;;;;4998122;28;20696;-77
2021/07/28 04:51:51;;;;;;;5.27;4.80;;;19.60;99.90;;;;;;5011610;28;20637;-77
2021/07/28 04:54:17;;;;;;;6.13;5.53;;;19.70;99.90;;;;;;4996732;28;20265;-78
2021/07/28 04:56:43;;;;;;;4.93;4.53;;;19.70;99.90;;;;;;4992817;28;20528;-77
2021/07/28 04:59:09;;;;;;;5.87;5.27;;;19.70;99.90;;;;;;4992363;28;20589;-77
2021/07/28 05:01:35;;;;;;;6.40;4.00;;;19.70;99.90;;;;;;4991134;28;20602;-78
2021/07/28 05:04:00;;;;;;;6.43;5.63;;;19.80;99.90;;;;;;4991185;28;20174;-78
2021/07/28 05:06:26;;;;;;;5.27;4.67;;;19.90;99.90;;;;;;4991456;28;20689;-78
2021/07/28 05:08:52;;;;;;;7.23;4.67;;;19.90;99.90;;;;;;4991059;28;20253;-78
2021/07/28 05:11:18;;;;;;;5.50;5.00;;;20.00;99.90;;;;;;4992302;28;20229;-77
2021/07/28 05:13:43;;;;;;;5.47;4.97;;;20.10;99.90;;;;;;4975225;28;20175;-77
2021/07/28 05:16:10;;;;;;;5.80;5.33;;;20.10;99.90;;;;;;4992898;28;20206;-78
2021/07/28 05:18:36;;;;;;;6.27;4.67;;;20.20;99.90;;;;;;4977596;28;20170;-78
2021/07/28 05:21:01;;;;;;;5.73;5.00;;;20.20;99.90;;;;;;4992243;28;20652;-78
2021/07/28 05:23:27;;;;;;;6.67;4.70;;;20.20;99.90;;;;;;4992446;28;20164;-78
2021/07/28 05:25:53;;;;;;;4.93;4.10;;;20.20;99.90;;;;;;4974898;28;20293;-78
2021/07/28 05:28:18;;;;;;;6.03;5.43;;;20.20;99.90;;;;;;4974554;28;20175;-78
2021/07/28 05:30:44;;;;;;;7.43;5.70;;;20.20;99.90;;;;;;4992190;28;20300;-78
2021/07/28 05:33:10;;;;;;;6.00;3.87;;;20.30;99.90;;;;;;4974649;28;20258;-78
2021/07/28 05:35:35;;;;;;;5.30;4.90;;;20.30;99.90;;;;;;4991730;28;20194;-78
2021/07/28 05:38:03;;;;;;;5.30;4.60;;;20.30;99.90;;;;;;5007630;28;20217;-78
2021/07/28 05:40:30;;;;;;;4.53;4.00;;;20.40;99.90;;;;;;4986625;28;20228;-77
2021/07/28 05:42:56;;;;;;;4.83;4.43;;;20.40;99.90;;;;;;5014866;28;20570;-77
2021/07/28 05:45:24;;;;;;;6.43;4.80;;;20.40;99.90;;;;;;5009757;28;20602;-78
2021/07/28 05:47:50;;;;;;;4.83;4.20;;;20.40;99.90;;;;;;4979432;28;20617;-78
2021/07/28 05:50:16;;;;;;;4.37;3.97;;;20.40;99.90;;;;;;5012292;28;20601;-78
2021/07/28 05:52:42;;;;;;;5.57;4.33;;;20.40;99.90;;;;;;5012266;28;20171;-78
2021/07/28 05:55:09;;;;;;;5.13;4.70;;;20.40;99.90;;;;;;4997434;28;20636;-78
2021/07/28 05:57:35;;;;;;;4.07;3.67;;;20.40;99.90;;;;;;5011874;28;20596;-78
2021/07/28 06:00:01;;;;;;;3.97;3.50;;;20.40;99.90;;;;;;5012689;28;21144;-78
2021/07/28 06:02:30;;;;;;;5.37;4.43;;;20.40;99.90;;;;;;5012772;28;20595;-78
2021/07/28 06:04:56;;;;;;;6.13;4.60;;;20.40;99.90;;;;;;5011264;28;21124;-79
2021/07/28 06:07:21;;;;;;;5.33;4.03;;;20.40;99.90;;;;;;5012376;28;20174;-78
2021/07/28 06:09:47;;;;;;;6.07;4.37;;;20.40;99.90;;;;;;4977685;28;20171;-78
2021/07/28 06:12:16;;;;;;;4.53;3.90;;;20.50;99.90;;;;;;4982121;28;20580;-78
2021/07/28 06:14:46;;;;;;;4.80;4.40;;;20.50;99.90;;;;;;5015049;28;20264;-78
2021/07/28 06:17:12;;;;;;;4.60;4.20;;;20.50;99.90;;;;;;5014602;28;20597;-78
2021/07/28 06:19:38;;;;;;;4.93;4.53;;;20.60;99.90;;;;;;5015415;28;20572;-78
2021/07/28 06:22:04;;;;;;;4.30;3.90;;;20.60;99.90;;;;;;5014927;28;20609;-78
2021/07/28 06:24:30;;;;;;;7.10;4.77;;;20.60;99.90;;;;;;5015136;28;20668;-78
2021/07/28 06:26:57;;;;;;;4.73;4.30;;;20.60;99.90;;;;;;5014868;28;20676;-78
2021/07/28 06:29:25;;;;;;;5.70;5.20;;;20.70;99.90;;;;;;5014841;28;21011;-78
2021/07/28 06:31:51;;;;;;;4.40;3.60;;;20.70;99.90;;;;;;5023616;28;20601;-77
2021/07/28 06:34:17;;;;;;;6.27;4.57;;;20.80;99.90;;;;;;5020377;28;20577;-78
2021/07/28 06:36:43;;;;;;;5.23;3.73;;;20.90;99.90;;;;;;4985032;28;20584;-77
2021/07/28 06:39:08;;;;;;;4.63;3.53;;;21.10;99.90;;;;;;5000924;28;20590;-77
2021/07/28 06:41:34;;;;;;;4.17;3.77;;;21.30;99.90;;;;;;4986061;28;20561;-78
2021/07/28 06:44:00;;;;;;;5.77;4.37;;;21.40;99.90;;;;;;4986832;28;20163;-77
2021/07/28 06:46:26;;;;;;;5.80;5.30;;;21.60;99.90;;;;;;5005131;28;20257;-77
2021/07/28 06:48:52;;;;;;;4.40;3.93;;;21.70;99.90;;;;;;5004811;28;20669;-78
2021/07/28 06:51:18;;;;;;;4.90;4.40;;;21.80;99.90;;;;;;5005751;28;20198;-78
2021/07/28 06:53:43;;;;;;;7.30;4.47;;;21.90;99.90;;;;;;5009238;28;20189;-79
2021/07/28 06:56:11;;;;;;;5.80;3.73;;;21.90;99.90;;;;;;4988002;28;20206;-79
2021/07/28 06:58:37;;;;;;;4.20;3.57;;;22.00;99.90;;;;;;5072946;23;20213;-80
2021/07/28 07:01:05;;;;;;;5.80;4.47;;;22.10;99.90;;;;;;5059182;28;20611;-79
2021/07/28 07:03:31;;;;;;;3.93;3.50;;;22.40;99.90;;;;;;5052258;28;20641;-80
2021/07/28 07:05:56;;;;;;;6.30;3.77;;;22.50;99.90;;;;;;5056342;28;20587;-80
2021/07/28 07:08:22;;;;;;;3.90;3.47;;;22.70;99.90;;;;;;5055214;28;20196;-80
2021/07/28 07:10:48;;;;;;;4.07;3.77;;;22.80;99.90;;;;;;5038472;28;20181;-80
2021/07/28 07:13:14;;;;;;;4.03;3.40;;;23.00;99.90;;;;;;5057463;28;20169;-79
2021/07/28 07:15:39;;;;;;;4.13;3.73;;;23.10;99.90;;;;;;5054998;28;20279;-80
2021/07/28 07:18:05;;;;;;;4.97;3.23;;;23.20;99.90;;;;;;5053445;28;20196;-80
2021/07/28 07:20:31;;;;;;;3.70;2.77;;;23.20;99.90;;;;;;5052754;28;20172;-80
2021/07/28 07:22:56;;;;;;;8.57;3.50;;;23.20;99.90;;;;;;5055242;28;20181;-77
2021/07/28 07:25:22;;;;;;;4.37;3.20;;;23.20;99.90;;;;;;5052672;28;20656;-77
2021/07/28 07:27:48;;;;;;;4.30;3.77;;;23.20;99.90;;;;;;5052679;28;20208;-76
2021/07/28 07:30:15;;;;;;;5.00;3.60;;;23.20;99.90;;;;;;5053098;28;20284;-77
2021/07/28 07:32:41;;;;;;;4.43;3.27;;;23.30;99.90;;;;;;5019307;28;20571;-77
2021/07/28 07:35:08;;;;;;;5.30;3.53;;;23.30;99.90;;;;;;5022182;28;20705;-77
2021/07/28 07:37:33;;;;;;;3.20;2.90;;;23.30;99.90;;;;;;5035236;28;20651;-77
2021/07/28 07:39:59;;;;;;;7.63;4.40;;;23.40;99.90;;;;;;5053033;28;20578;-77
2021/07/28 07:42:25;;;;;;;4.57;2.90;;;23.40;99.90;;;;;;5035625;28;20179;-77
2021/07/28 07:44:53;;;;;;;3.63;3.20;;;23.50;99.90;;;;;;5053248;28;20168;-77
2021/07/28 07:47:18;;;;;;;5.13;2.90;;;23.60;99.90;;;;;;5035115;28;20686;-77
2021/07/28 07:49:44;;;;;;;3.20;2.97;;;23.60;99.90;;;;;;5053197;28;20567;-78
2021/07/28 07:52:10;;;;;;;4.43;3.03;;;23.50;99.90;;;;;;5053332;28;20165;-77
2021/07/28 07:54:35;;;;;;;4.73;3.07;;;23.50;99.90;;;;;;5053340;28;20216;-77
2021/07/28 07:57:01;;;;;;;5.80;3.60;;;23.50;99.90;;;;;;5052715;28;20193;-78
2021/07/28 07:59:27;;;;;;;3.60;2.93;;;23.50;99.90;;;;;;5052629;28;20256;-77
2021/07/28 08:01:53;;;;;;;5.20;3.80;;;23.50;99.90;;;;;;5052684;28;20598;-77
2021/07/28 08:04:21;;;;;;;3.70;3.40;;;23.30;99.90;;;;;;5034997;28;20172;-76
2021/07/28 08:06:47;;;;;;;4.17;3.77;;;23.20;99.90;;;;;;5052507;28;20165;-77
2021/07/28 08:09:12;;;;;;;4.23;3.80;;;23.20;99.90;;;;;;5052520;28;20624;-77
2021/07/28 08:11:38;;;;;;;3.67;3.23;;;23.10;99.90;;;;;;5034664;28;20625;-75
2021/07/28 08:14:04;;;;;;;3.67;3.20;;;23.00;99.90;;;;;;5034359;28;20165;-76
2021/07/28 08:16:30;;;;;;;3.83;3.50;;;23.00;99.90;;;;;;5018395;28;20886;-77
2021/07/28 08:18:56;;;;;;;3.80;3.30;;;22.90;99.90;;;;;;5052363;28;20656;-78
2021/07/28 08:21:21;;;;;;;4.10;2.90;;;23.30;99.90;;;;;;5034835;28;20583;-78
2021/07/28 08:23:48;;;;;;;3.33;3.03;;;23.70;99.90;;;;;;5052471;28;20165;-77
2021/07/28 08:26:15;;;;;;;3.17;2.87;;;24.30;99.90;;;;;;5034734;28;20207;-77
2021/07/28 08:28:42;;;;;;;2.93;2.73;;;24.90;99.90;;;;;;5034208;28;20686;-78
2021/07/28 08:31:08;;;;;;;6.00;3.47;;;25.70;99.90;;;;;;5052035;28;20567;-77
2021/07/28 08:33:34;;;;;;;3.30;2.90;;;26.80;99.90;;;;;;5034286;28;20663;-77
2021/07/28 08:36:03;;;;;;;3.17;2.70;;;27.70;99.90;;;;;;5033639;28;20722;-77
2021/07/28 08:38:29;;;;;;;2.87;2.57;;;28.80;99.90;;;;;;5028319;28;20638;-77
2021/07/28 08:41:00;;;;;;;3.00;2.53;;;29.80;99.90;;;;;;5031790;28;20939;-77
2021/07/28 08:43:37;;;;;;;3.13;2.47;;;30.40;99.90;;;;;;5032477;28;20975;-77
2021/07/28 08:46:04;;;;;;;3.77;1.40;;;30.80;99.90;;;;;;5030972;28;21143;-75
2021/07/28 08:48:31;;;;;;;3.10;1.83;;;31.30;99.90;;;;;;5014386;28;20652;-76
2021/07/28 08:51:01;;;;;;;2.80;1.60;;;31.90;99.90;;;;;;5032038;28;20580;-77
2021/07/28 08:53:30;;;;;;;2.30;1.50;;;32.30;99.90;;;;;;5032738;28;20579;-76
2021/07/28 08:55:58;;;;;;;2.60;1.23;;;32.60;99.90;;;;;;5014315;28;21293;-77
2021/07/28 08:58:25;;;;;;;1.80;1.30;;;32.60;99.90;;;;;;5030330;28;20625;-77
2021/07/28 09:00:52;;;;;;;2.00;1.77;;;32.70;99.90;;;;;;5031397;28;20570;-77
2021/07/28 09:03:18;;;;;;;1.90;1.40;;;32.90;99.90;;;;;;5014378;28;20571;-76
2021/07/28 09:05:46;;;;;;;1.87;1.30;;;32.80;99.90;;;;;;5031439;28;20584;-77
2021/07/28 09:08:32;;;;;;;3.00;1.37;;;32.60;99.90;;;;;;4985632;28;20565;-78
2021/07/28 09:11:03;;;;;;;1.80;1.00;;;32.20;99.90;;;;;;5014069;28;20572;-77
2021/07/28 09:13:32;;;;;;;1.70;1.17;;;31.80;99.90;;;;;;5032117;28;20666;-77
2021/07/28 09:16:03;;;;;;;2.23;1.23;;;31.40;99.90;;;;;;4997398;28;20719;-78
2021/07/28 09:18:40;;;;;;;2.80;0.97;;;30.90;99.90;;;;;;5031323;28;20609;-77
2021/07/28 09:21:28;;;;;;;2.47;1.30;;;30.50;99.90;;;;;;5014705;28;20992;-77
2021/07/28 09:24:12;;;;;;;2.03;1.40;;;30.00;99.90;;;;;;5032488;28;20564;-77
2021/07/28 09:26:47;;;;;;;1.93;1.50;;;29.70;99.90;;;;;;5017610;28;20568;-77
2021/07/28 09:29:21;;;;;;;2.60;1.30;;;29.50;99.90;;;;;;5037642;28;20634;-77
2021/07/28 09:31:50;;;;;;;2.83;1.77;;;29.60;99.90;;;;;;5036402;28;20951;-78
2021/07/28 09:34:22;;;;;;;1.80;1.33;;;29.80;99.90;;;;;;5034816;28;21122;-78
2021/07/28 09:37:10;;;;;;;3.00;1.13;;;30.20;99.90;;;;;;5032224;28;20963;-78
2021/07/28 09:39:38;;;;;;;1.60;1.20;;;30.90;99.90;;;;;;5031485;28;20572;-78
2021/07/28 09:42:17;;;;;;;2.60;1.50;;;31.90;99.90;;;;;;5032210;28;20687;-77
2021/07/28 09:44:48;;;;;;;3.60;2.30;;;32.70;99.90;;;;;;5050992;28;20633;-76
2021/07/28 09:47:14;;;;;;;2.10;1.83;;;33.30;99.90;;;;;;5049648;28;20616;-75
2021/07/28 09:49:43;;;;;;;2.10;1.63;;;33.80;99.90;;;;;;5050235;28;20610;-77
2021/07/28 09:52:21;;;;;;;2.43;1.20;;;34.40;99.90;;;;;;5036517;28;20572;-77
2021/07/28 09:54:51;;;;;;;4.07;1.30;;;35.10;99.90;;;;;;5055226;28;20642;-77
2021/07/28 09:57:20;;;;;;;3.77;2.10;;;35.80;99.50;;;;;;5049979;28;20623;-78
2021/07/28 09:59:55;;;;;;;2.13;1.70;;;36.40;98.20;;;;;;5035045;28;20618;-77
2021/07/28 10:02:22;;;;;;;1.60;1.30;;;36.70;95.60;;;;;;5037266;28;20587;-77
2021/07/28 10:04:50;;;;;;;1.87;1.40;;;37.00;94.50;;;;;;5017157;28;20602;-77
2021/07/28 10:07:21;;;;;;;2.80;1.50;;;37.10;92.70;;;;;;5034757;28;20628;-78
2021/07/28 10:10:10;;;;;;;2.50;1.50;;;36.90;88.40;;;;;;5035085;28;20576;-78
2021/07/28 10:12:40;;;;;;;5.00;1.43;;;36.90;84.70;;;;;;5003451;28;20638;-78
2021/07/28 10:15:08;;;;;;;3.20;1.00;;;36.90;82.70;;;;;;5041971;28;20718;-78
2021/07/28 10:17:41;;;;;;;1.60;1.00;;;36.80;81.00;;;;;;5035963;28;20610;-76
2021/07/28 10:20:12;;;;;;;2.17;0.80;;;36.60;77.80;;;;;;5017319;28;20585;-77
2021/07/28 10:22:39;;;;;;;1.33;0.90;;;36.40;77.50;;;;;;5033509;28;20568;-76
2021/07/28 10:25:12;;;;;;;2.10;1.27;;;36.20;75.50;;;;;;5034885;28;20985;-76
2021/07/28 10:27:41;;;;;;;1.73;1.10;;;35.70;72.30;;;;;;5034363;28;20623;-75
2021/07/28 10:30:10;;;;;;;3.30;1.10;;;35.00;71.50;;;;;;5033518;28;20573;-75
2021/07/28 10:32:36;;;;;;;2.90;0.90;;;34.50;71.70;;;;;;5034468;28;20626;-75
2021/07/28 10:35:29;;;;;;;1.60;1.20;;;34.20;71.90;;;;;;5033479;28;20657;-76
2021/07/28 10:38:01;;;;;;;1.60;1.00;;;34.20;75.50;;;;;;5033912;28;20667;-76
2021/07/28 10:40:27;;;;;;;1.60;0.90;;;34.50;75.70;;;;;;5034510;28;20563;-76
2021/07/28 10:42:55;;;;;;;2.27;1.00;;;35.00;77.70;;;;;;5034350;28;21130;-75
2021/07/28 10:45:24;;;;;;;2.70;2.13;;;35.60;74.80;;;;;;5034400;28;20484;-76
2021/07/28 10:47:51;;;;;;;2.03;1.33;;;36.20;72.30;;;;;;5033639;28;20591;-76
2021/07/28 10:50:20;;;;;;;1.97;1.47;;;36.60;72.40;;;;;;5033126;28;20588;-76
2021/07/28 10:52:49;;;;;;;1.40;0.90;;;36.90;70.00;;;;;;5016042;28;20914;-76
2021/07/28 10:55:18;;;;;;;2.13;0.87;;;36.90;67.00;;;;;;5034312;28;20982;-76
2021/07/28 10:57:53;;;;;;;5.63;1.10;;;37.00;65.80;;;;;;5033119;28;20608;-77
2021/07/28 11:00:38;;;;;;;2.03;0.97;;;36.90;63.60;;;;;;5034245;28;20610;-76
2021/07/28 11:03:10;;;;;;;2.60;1.20;;;36.70;60.70;;;;;;5033081;28;20921;-76
2021/07/28 11:05:36;;;;;;;3.47;1.17;;;36.40;61.80;;;;;;5000069;28;21150;-76
2021/07/28 11:08:02;;;;;;;1.77;1.07;;;36.20;61.60;;;;;;5033750;28;20600;-77
2021/07/28 11:10:51;;;;;;;2.10;1.23;;;36.20;61.40;;;;;;5034085;28;20577;-76
2021/07/28 11:13:46;;;;;;;1.63;0.93;;;36.20;61.10;;;;;;5034224;28;20169;-76
2021/07/28 11:16:12;;;;;;;2.10;1.10;;;36.20;61.10;;;;;;5017401;28;20640;-74
2021/07/28 11:18:39;;;;;;;1.33;0.80;;;36.20;61.30;;;;;;5016907;28;20608;-75
2021/07/28 11:21:12;;;;;;;1.70;0.90;;;36.10;61.00;;;;;;5034283;28;20682;-75
2021/07/28 11:23:49;;;;;;;1.43;0.93;;;36.20;61.50;;;;;;5034446;28;20579;-76
2021/07/28 11:26:19;;;;;;;1.60;0.90;;;36.10;59.90;;;;;;5034385;28;20674;-76
2021/07/28 11:28:45;;;;;;;1.87;1.07;;;36.10;58.90;;;;;;5043506;28;20734;-76
2021/07/28 11:31:11;;;;;;;1.83;0.90;;;35.90;58.50;;;;;;5043249;28;21069;-76
2021/07/28 11:33:37;;;;;;;3.73;1.50;;;35.70;57.50;;;;;;5041987;28;20576;-75
2021/07/28 11:36:04;;;;;;;2.63;1.87;;;35.40;57.40;;;;;;5039619;28;20627;-76
2021/07/28 11:38:38;;;;;;;1.20;0.80;;;35.30;57.50;;;;;;5020332;28;20620;-73
2021/07/28 11:41:06;;;;;;;3.13;1.00;;;35.20;58.00;;;;;;5041923;28;20606;-75
2021/07/28 11:43:33;;;;;;;2.13;0.90;;;35.30;58.30;;;;;;5039510;28;20591;-75
2021/07/28 11:46:04;;;;;;;1.50;0.80;;;35.30;59.00;;;;;;5016110;28;20935;-77
2021/07/28 11:48:34;;;;;;;1.83;0.70;;;35.50;58.10;;;;;;5033487;28;20619;-77
2021/07/28 11:51:05;;;;;;;1.20;0.70;;;35.50;57.30;;;;;;5015580;28;20568;-76
2021/07/28 11:53:32;;;;;;;1.40;0.80;;;35.40;56.80;;;;;;5029436;28;20984;-76
2021/07/28 11:56:13;;;;;;;1.90;1.00;;;35.30;56.70;;;;;;4995902;28;20678;-76
2021/07/28 11:58:43;;;;;;;1.87;1.10;;;35.20;56.30;;;;;;5029169;28;20654;-76
2021/07/28 12:01:23;;;;;;;1.40;1.00;;;35.00;55.30;;;;;;5033325;28;20573;-75
2021/07/28 12:03:59;;;;;;;2.27;0.93;;;34.80;53.80;;;;;;5031723;28;20711;-76
2021/07/28 12:06:29;;;;;;;3.20;0.90;;;34.40;53.70;;;;;;5032971;28;20577;-76
2021/07/28 12:09:15;;;;;;;1.70;0.87;;;34.00;54.00;;;;;;5032697;28;20691;-75
2021/07/28 12:11:48;;;;;;;3.40;0.97;;;33.60;54.30;;;;;;5032857;28;20714;-76
2021/07/28 12:14:26;;;;;;;2.73;2.10;;;33.20;54.10;;;;;;5013737;28;20613;-76
2021/07/28 12:16:53;;;;;;;3.23;2.00;;;32.80;54.40;;;;;;5015046;28;21163;-77
2021/07/28 12:19:25;;;;;;;1.90;1.70;;;32.40;54.70;;;;;;5032575;28;21460;-76
2021/07/28 12:22:05;;;;;;;2.37;1.20;;;32.10;54.30;;;;;;5031537;28;20565;-75
2021/07/28 12:24:35;;;;;;;2.10;1.03;;;31.80;55.30;;;;;;5014583;28;20595;-76
2021/07/28 12:27:24;;;;;;;2.30;1.20;;;31.70;55.00;;;;;;5032322;28;20656;-77
2021/07/28 12:30:14;;;;;;;1.70;1.10;;;31.50;54.90;;;;;;5032102;28;20567;-77
2021/07/28 12:32:45;;;;;;;1.90;1.10;;;31.40;54.90;;;;;;5032659;28;20903;-75
2021/07/28 12:35:14;;;;;;;1.47;1.00;;;31.30;55.80;;;;;;5035065;28;20639;-75
2021/07/28 12:37:40;;;;;;;2.00;1.20;;;31.30;56.00;;;;;;5031489;28;20612;-75
2021/07/28 12:40:07;;;;;;;2.53;0.90;;;31.40;56.30;;;;;;5030349;28;20672;-75
2021/07/28 12:42:33;;;;;;;2.17;0.97;;;31.40;56.90;;;;;;5027340;28;20596;-75
2021/07/28 12:44:59;;;;;;;1.80;1.07;;;31.40;56.30;;;;;;5030504;28;21147;-76
2021/07/28 12:47:25;;;;;;;3.73;1.17;;;31.40;56.40;;;;;;5031797;28;20331;-75
2021/07/28 12:49:51;;;;;;;2.77;1.97;;;31.30;56.00;;;;;;5029835;28;21026;-75
2021/07/28 12:52:17;;;;;;;3.97;1.57;;;31.20;55.90;;;;;;5030521;28;20312;-75
2021/07/28 12:54:43;;;;;;;7.50;2.13;;;31.10;55.70;;;;;;5031258;28;20719;-76